Selected Arizona METAR Reports


Metar stations are listed by distance from this station - near to far. The 'official' reporting station for the Greater Phoenix area is KPHX - Phoenix/Sky Harbor.

KDVT - Phoenix/Deer Valley, Arizona, USA
Distance from station: NW 4mi, 7km
Updated: Wed 22 Jan 2020 0753 MST
Few Clouds
Few Clouds
 Wind from calm
Wind: Calm
Temperature: 50°F , 10°C
Dew Point: 46°F , 8°C
Humidity: 88%
Barometer: 30.13 inHg , 1020.3 hPa
Clouds: Few Clouds
Visibility: 8 miles , 13 km
Cloud details: Few Clouds 6000 ft
2020/01/22 14:53 KDVT 221453Z 00000KT 8SM FEW060 10/08 A3013 RMK AO2 SLP195 T01000083 53004
KSDL - Scottsdale, Arizona, USA
Distance from station: ESE 6mi, 9km
Updated: Wed 22 Jan 2020 0753 MST
Mist, Partly cloudy
Mist, Partly cloudy
 Wind from calm
Wind: Calm
Temperature: 50°F , 10°C
Dew Point: 46°F , 8°C
Humidity: 88%
Barometer: 30.13 inHg , 1020.3 hPa
Summary: Mist
Clouds: Partly cloudy
Visibility: 6 miles , 10 km
Cloud details: Partly cloudy 6000 ft
2020/01/22 14:53 KSDL 221453Z 00000KT 6SM BR SCT060 10/08 A3013 RMK AO2 SLP197 T01000083 53005
 
KPHX - Phoenix/Sky Harbor, Arizona, USA
Distance from station: S 15mi, 24km
Updated: Wed 22 Jan 2020 0751 MST
Overcast
Overcast
 Wind from WSW
Wind: WSW 3 mph , 6 km/h
Temperature: 54°F , 12°C
Dew Point: 48°F , 9°C
Humidity: 82%
Barometer: 30.12 inHg , 1020 hPa
Clouds: Overcast
Visibility: 8 miles , 13 km
Cloud details: Mostly cloudy 1000 ft
Overcast 4000 ft
2020/01/22 14:51 KPHX 221451Z 25003KT 8SM BKN010 OVC040 12/09 A3012 RMK AO2 SLP192 T01170094 53006
KGEU - Glendale, Arizona, USA
Distance from station: WSW 19mi, 30km
Updated: Wed 22 Jan 2020 0751 MST
Overcast
Overcast
 Wind from W
Wind: W 3 mph , 6 km/h
Temperature: 50°F , 10°C
Dew Point: 50°F , 10°C
Humidity: 100%
Barometer: 30.15 inHg , 1021 hPa
Clouds: Overcast
Visibility: 7 miles , 11 km
Cloud details: Mostly cloudy 1000 ft
Overcast 5000 ft
2020/01/22 14:51 KGEU 221451Z 26003KT 7SM BKN010 OVC050 10/10 A3015
 
KFFZ - Mesa/Falcon Field, Arizona, USA
Distance from station: SE 21mi, 33km
Updated: Wed 22 Jan 2020 0754 MST
Mist, Overcast
Mist, Overcast
 Wind from calm
Wind: Calm
Temperature: 52°F , 11°C
Dew Point: 52°F , 11°C
Humidity: 100%
Barometer: 30.12 inHg , 1020 hPa
Summary: Mist
Clouds: Overcast
Visibility: 3 miles , 5 km
Cloud details: Overcast 5000 ft
2020/01/22 14:54 KFFZ 221454Z 00000KT 3SM BR OVC050 11/11 A3012 RMK AO2 SLP190 T01110106 53005
KLUF - Luke AFB/Glendale, Arizona, USA
Distance from station: WSW 23mi, 36km
Updated: Wed 22 Jan 2020 0759 MST
Mist, Overcast
Mist, Overcast
 Wind from N
Wind: N 3 mph , 6 km/h
Temperature: 46°F , 8°C
Dew Point: 46°F , 8°C
Humidity: 100%
Barometer: 30.12 inHg , 1020 hPa
Summary: Mist
Clouds: Overcast
Visibility: 5 miles , 8 km
Cloud details: Overcast 700 ft
2020/01/22 14:59 KLUF 221459Z 01003KT 5SM BR OVC007 08/08 A3012 RMK AO2A VIS 1 7/8 RWY21 CIG 006 RWY 21 SLP200 53006 $
 
KGYR - Goodyear Municipal, Arizona, USA
Distance from station: SW 26mi, 42km
Updated: Wed 22 Jan 2020 0747 MST
Fog, Overcast
Fog, Overcast
 Wind from NW
Wind: NW 5 mph , 7 km/h
Temperature: 48°F , 9°C
Wind Chill: 46°F , 8°C
Dew Point: 48°F , 9°C
Humidity: 100%
Barometer: 30.14 inHg , 1020.7 hPa
Summary: Fog
Clouds: Overcast
Visibility: 1/4 mile , 0.4 km
Cloud details: Overcast 200 ft
2020/01/22 14:47 KGYR 221447Z 32004KT 1/4SM FG VV002 09/09 A3014
KIWA - Chandler/Mesa, Arizona, USA
Distance from station: SE 32mi, 51km
Updated: Wed 22 Jan 2020 0747 MST
Mist, Mostly cloudy
Mist, Mostly cloudy
 Wind from calm
Wind: Calm
Temperature: 52°F , 11°C
Dew Point: 52°F , 11°C
Humidity: 100%
Barometer: 30.14 inHg , 1020.7 hPa
Summary: Mist
Clouds: Mostly cloudy
Visibility: 3 miles , 5 km
Cloud details: Partly cloudy 500 ft
Partly cloudy 1300 ft
Mostly cloudy 5500 ft
2020/01/22 14:47 KIWA 221447Z 00000KT 3SM BR SCT005 SCT013 BKN055 11/11 A3014
 
KBXK - Buckeye, Arizona, USA
Distance from station: WSW 42mi, 68km
Updated: Wed 22 Jan 2020 0835 MST
Mist, Clear
Mist, Clear
 Wind from calm
Wind: Calm
Temperature: 46°F , 8°C
Dew Point: 46°F , 8°C
Humidity: 100%
Barometer: 30.15 inHg , 1021 hPa
Summary: Mist
Clouds: Clear
Visibility: 4 miles , 6 km
2020/01/22 15:35 KBXK 221535Z AUTO 00000KT 4SM BR CLR 08/08 A3015 RMK A01
KCGZ - Casa Grande, Arizona, USA
Distance from station: SSE 50mi, 81km
Updated: Wed 22 Jan 2020 0756 MST
Mist, Overcast
Mist, Overcast
 Wind from calm
Wind: Calm
Temperature: 52°F , 11°C
Dew Point: 50°F , 10°C
Humidity: 94%
Barometer: 30.14 inHg , 1020.7 hPa
Summary: Mist
Clouds: Overcast
Visibility: 2 1/2 miles , 4 km
Cloud details: Partly cloudy 3900 ft
Overcast 5000 ft
2020/01/22 14:56 KCGZ 221456Z AUTO 00000KT 2 1/2SM BR SCT039 OVC050 11/10 A3014 RMK AO2 SLP207 6//// T01060100 53009
 
KPAN - Payson, Arizona, USA
Distance from station: NE 57mi, 91km
Updated: Wed 22 Jan 2020 0835 MST
Clear
Clear
 Wind from calm
Wind: Calm
Temperature: 39°F , 4°C
Dew Point: 39°F , 4°C
Humidity: 100%
Barometer: 30.15 inHg , 1021 hPa
Clouds: Clear
Visibility: 9 miles , 14 km
2020/01/22 15:35 KPAN 221535Z AUTO 00000KT 9SM CLR 04/04 A3015 RMK AO2
KGBN - Gila Bend (aaf), Arizona, USA
Distance from station: SW 68mi, 109km
Updated: Wed 04 Dec 2019 0855 MST
NOT Current
Mostly cloudy
Mostly cloudy
 Wind from calm
Wind: Calm
Temperature: 55°F , 13°C
Dew Point: 54°F , 12°C
Humidity: 94%
Barometer: 30.02 inHg , 1016.6 hPa
Clouds: Mostly cloudy
Visibility: 10 miles , 16 km
Cloud details: Mostly cloudy 10000 ft
Mostly cloudy 14000 ft
2019/12/04 15:55 KGBN 041555Z 00000KT 10SM BKN100 BKN140 13/12 A3002 RMK AO2A SLP162
 
KPRC - Prescott, Arizona, USA
Distance from station: NNW 73mi, 118km
Updated: Wed 22 Jan 2020 0753 MST
Clear
Clear
 Wind from S
Wind: S 5 mph , 7 km/h
Temperature: 30°F , -1°C
Wind Chill: 25°F , -4°C
Dew Point: 28°F , -2°C
Humidity: 93%
Barometer: 30.14 inHg , 1020.7 hPa
Clouds: Clear
Visibility: 10 miles , 16 km
2020/01/22 14:53 KPRC 221453Z 18004KT 10SM CLR M01/M02 A3014 RMK AO2 SLP196 T10061017 53004
KSEZ - Sedona, Arizona, USA
Distance from station: N 84mi, 135km
Updated: Wed 22 Jan 2020 0835 MST
Clear
Clear
 Wind from NNE
Wind: NNE 8 mph , 13 km/h
Temperature: 37°F , 3°C
Wind Chill: 31°F , -1°C
Dew Point: 34°F , 1°C
Humidity: 87%
Barometer: 30.15 inHg , 1021 hPa
Clouds: Clear
Visibility: 10 miles , 16 km
2020/01/22 15:35 KSEZ 221535Z AUTO 03007KT 10SM CLR 03/01 A3015 RMK AO2
 
KFLG - Flagstaff, Arizona, USA
Distance from station: N 105mi, 168km
Updated: Wed 22 Jan 2020 0757 MST
Clear
Clear
 Wind from NNE
Wind: NNE 3 mph , 6 km/h
Temperature: 25°F , -4°C
Dew Point: 21°F , -6°C
Humidity: 86%
Barometer: 30.12 inHg , 1020 hPa
Clouds: Clear
Visibility: 10 miles , 16 km
2020/01/22 14:57 KFLG 221457Z 03003KT 10SM CLR M04/M06 A3012 RMK AO2 SLP195 I1000 I3001 T10441056 53007
KRYN - Tucson/Ryan Field, Arizona, USA
Distance from station: SSE 114mi, 184km
Updated: Wed 22 Jan 2020 0745 MST
Overcast
Overcast
 Wind from WNW
Wind: WNW 3 mph , 6 km/h
Temperature: 52°F , 11°C
Dew Point: 50°F , 10°C
Humidity: 94%
Barometer: 30.15 inHg , 1021 hPa
Clouds: Overcast
Visibility: 10 miles , 16 km
Cloud details: Mostly cloudy 2500 ft
Overcast 3300 ft
2020/01/22 14:45 KRYN 221445Z 29003KT 10SM BKN025 OVC033 11/10 A3015
 
KCMR - Williams Clark, Arizona, USA
Distance from station: N 115mi, 185km
Updated: Wed 22 Jan 2020 0835 MST
Mostly cloudy
Mostly cloudy
 Wind from calm
Wind: Calm
Temperature: 32°F , 0°C
Dew Point: 30°F , -1°C
Humidity: 93%
Barometer: 30.15 inHg , 1021 hPa
Clouds: Mostly cloudy
Visibility: 10 miles , 16 km
Cloud details: Mostly cloudy 400 ft
2020/01/22 15:35 KCMR 221535Z AUTO 00000KT 10SM BKN004 M00/M01 A3015 RMK AO2
KINW - Winslow, Arizona, USA
Distance from station: NE 121mi, 194km
Updated: Wed 22 Jan 2020 0756 MST
Clear
Clear
 Wind from ENE
Wind: ENE 5 mph , 7 km/h
Temperature: 34°F , 1°C
Wind Chill: 29°F , -2°C
Dew Point: 30°F , -1°C
Humidity: 87%
Barometer: 30.13 inHg , 1020.3 hPa
Clouds: Clear
Visibility: 10 miles , 16 km
2020/01/22 14:56 KINW 221456Z AUTO 06004KT 10SM CLR 01/M01 A3013 RMK AO2 SLP200 T00111006 51009
 
KTUS - Tucson, Arizona, USA
Distance from station: SSE 121mi, 195km
Updated: Wed 22 Jan 2020 0753 MST
Overcast
Overcast
 Wind from calm
Wind: Calm
Temperature: 50°F , 10°C
Dew Point: 48°F , 9°C
Humidity: 94%
Barometer: 30.15 inHg , 1021 hPa
Clouds: Overcast
Visibility: 10 miles , 16 km
Cloud details: Overcast 3000 ft
2020/01/22 14:53 KTUS 221453Z 00000KT 10SM OVC030 10/09 A3015 RMK AO2 SLP192 60000 T01000089 53012
KDMA - Davis AFB/Tucson, Arizona, USA
Distance from station: SE 122mi, 196km
Updated: Wed 22 Jan 2020 0756 MST
Overcast
Overcast
 Wind from W
Wind: W 6 mph , 9 km/h
Temperature: 50°F , 10°C
Wind Chill: 48°F , 9°C
Dew Point: 46°F , 8°C
Humidity: 88%
Barometer: 30.13 inHg , 1020.3 hPa
Clouds: Overcast
Visibility: 10 miles , 16 km
Cloud details: Overcast 3100 ft
2020/01/22 14:56 KDMA 221456Z AUTO 27005KT 10SM OVC031 10/08 A3013 RMK AO2 SLP189 T01000084 53013 FZRANO $
 
KSOW - Show Low Municipal, Arizona, USA
Distance from station: ENE 123mi, 198km
Updated: Wed 22 Jan 2020 0835 MST
Mist, Overcast
Mist, Overcast
 Wind from calm
Wind: Calm
Temperature: 34°F , 1°C
Dew Point: 34°F , 1°C
Humidity: 100%
Barometer: 30.16 inHg , 1021.3 hPa
Summary: Mist
Clouds: Overcast
Visibility: 3 miles , 5 km
Cloud details: Overcast 300 ft
2020/01/22 15:35 KSOW 221535Z AUTO 00000KT 3SM BR OVC003 01/01 A3016 RMK AO2
KSAD - Safford, Arizona, USA
Distance from station: ESE 148mi, 238km
Updated: Wed 22 Jan 2020 0751 MST
Overcast
Overcast
 Wind from WNW
Wind: WNW 14 mph , 22 km/h
Temperature: 48°F , 9°C
Wind Chill: 42°F , 6°C
Dew Point: 46°F , 8°C
Humidity: 94%
Barometer: 30.10 inHg , 1019.3 hPa
Clouds: Overcast
Visibility: 10 miles , 16 km
Cloud details: Overcast 5000 ft
2020/01/22 14:51 KSAD 221451Z AUTO 30012KT 10SM OVC050 09/08 A3010 RMK AO2 SLP175 T00940078 53012